Time;durP1;ratioP1;P1;durP2;ratioP2;P2;SDS_P1;SDS_P2;PMS_P1;PMS_P2;Temp;Humidity;BMP_temperature;BMP_pressure;BME280_temperature;BME280_humidity;BME280_pressure;Samples;Min_cycle;Max_cycle;Signal;HPM_P1;HPM_P2
2022/04/14 00:00:24;;;;;;;12.15;8.43;;;12.50;99.90;;;;;;5024885;28;20488;-81
2022/04/14 00:02:50;;;;;;;15.63;8.88;;;;;;;;;;5011310;28;20423;-81
2022/04/14 00:05:16;;;;;;;13.98;8.77;;;;;;;;;;5026045;28;20430;-81
2022/04/14 00:07:44;;;;;;;15.35;9.02;;;;;;;;;;5025943;28;20430;-80
2022/04/14 00:10:11;;;;;;;16.60;9.50;;;12.40;99.90;;;;;;5011435;28;20419;-80
2022/04/14 00:12:37;;;;;;;17.45;9.80;;;;;;;;;;5001728;28;20775;-80
2022/04/14 00:15:04;;;;;;;13.07;9.32;;;;;;;;;;5025772;28;20432;-80
2022/04/14 00:17:32;;;;;;;15.82;9.60;;;;;;;;;;5027928;28;20482;-80
2022/04/14 00:19:58;;;;;;;15.45;9.73;;;;;;;;;;5014260;28;20934;-80
2022/04/14 00:22:24;;;;;;;13.52;8.90;;;;;;;;;;5027969;28;21027;-81
2022/04/14 00:24:50;;;;;;;15.40;9.40;;;;;;;;;;5031763;28;20427;-81
2022/04/14 00:27:20;;;;;;;14.77;8.75;;;;;;;;;;5028840;28;20429;-81
2022/04/14 00:29:49;;;;;;;15.03;8.60;;;;;;;;;;5031053;28;20422;-81
2022/04/14 00:32:16;;;;;;;14.98;9.10;;;;;;;;;;5030597;28;20450;-81
2022/04/14 00:34:42;;;;;;;10.93;8.43;;;;;;;;;;5028498;28;20434;-81
2022/04/14 00:37:11;;;;;;;17.13;9.70;;;;;;;;;;5029333;28;20933;-80
2022/04/14 00:39:38;;;;;;;12.80;9.10;;;;;;;;;;5031785;28;20434;-81
2022/04/14 00:42:10;;;;;;;14.05;9.27;;;;;;;;;;5028956;28;20938;-81
2022/04/14 00:44:36;;;;;;;18.10;9.98;;;;;;;;;;5013052;28;20473;-81
2022/04/14 00:47:03;;;;;;;15.60;9.60;;;;;;;;;;5030632;28;20455;-81
2022/04/14 00:49:29;;;;;;;14.48;9.90;;;;;;;;;;5029118;28;20419;-81
2022/04/14 00:51:55;;;;;;;16.92;10.27;;;;;;;;;;5008683;28;20459;-81
2022/04/14 00:54:21;;;;;;;17.35;11.50;;;;;;;;;;5010790;28;20458;-80
2022/04/14 00:56:47;;;;;;;15.43;10.05;;;;;;;;;;5030776;28;20965;-80
2022/04/14 00:59:13;;;;;;;15.23;10.80;;;;;;;;;;5030594;28;20446;-80
2022/04/14 01:01:40;;;;;;;14.85;10.65;;;;;;;;;;5029303;28;20435;-80
2022/04/14 01:04:08;;;;;;;16.73;10.63;;;11.20;99.90;;;;;;5019169;28;20431;-80
2022/04/14 01:06:37;;;;;;;17.87;11.63;;;;;;;;;;5013575;28;20608;-80
2022/04/14 01:09:21;;;;;;;17.92;10.98;;;;;;;;;;5021383;28;21761;-80
2022/04/14 01:11:55;;;;;;;18.08;11.48;;;11.50;99.90;;;;;;5024107;28;20502;-80
2022/04/14 01:14:21;;;;;;;16.90;11.73;;;;;;;;;;5029950;28;20465;-80
2022/04/14 01:16:47;;;;;;;17.70;11.17;;;;;;;;;;5023211;28;20951;-80
2022/04/14 01:19:13;;;;;;;16.90;11.45;;;;;;;;;;5026651;28;20458;-81
2022/04/14 01:21:42;;;;;;;18.48;11.93;;;;;;;;;;5033189;28;20423;-80
2022/04/14 01:24:09;;;;;;;17.25;11.55;;;;;;;;;;5030780;28;20419;-81
2022/04/14 01:26:37;;;;;;;18.60;11.95;;;11.00;99.90;;;;;;5019323;28;20426;-81
2022/04/14 01:29:04;;;;;;;18.83;12.03;;;;;;;;;;5028322;28;20426;-81
2022/04/14 01:31:30;;;;;;;19.88;12.70;;;;;;;;;;5028901;28;20425;-81
2022/04/14 01:33:56;;;;;;;21.60;12.98;;;;;;;;;;5030752;28;20498;-81
2022/04/14 01:36:22;;;;;;;19.17;11.73;;;;;;;;;;5009402;28;20485;-81
2022/04/14 01:38:49;;;;;;;19.77;12.85;;;;;;;;;;5026816;28;20507;-81
2022/04/14 01:41:15;;;;;;;17.58;12.38;;;;;;;;;;5030608;28;20492;-81
2022/04/14 01:43:43;;;;;;;20.02;13.02;;;;;;;;;;5029919;28;20435;-81
2022/04/14 01:46:09;;;;;;;19.10;12.73;;;;;;;;;;5021951;28;20492;-81
2022/04/14 01:48:38;;;;;;;17.48;12.82;;;;;;;;;;5030002;28;20481;-81
2022/04/14 01:51:05;;;;;;;22.03;13.90;;;;;;;;;;5020046;28;20494;-81
2022/04/14 01:53:31;;;;;;;19.00;13.80;;;;;;;;;;4983333;28;20825;-81
2022/04/14 01:55:57;;;;;;;19.75;13.75;;;;;;;;;;4996558;28;20917;-81
2022/04/14 01:58:23;;;;;;;20.43;13.80;;;;;;;;;;4997293;28;21037;-81
2022/04/14 02:00:49;;;;;;;21.98;13.70;;;;;;;;;;5012728;28;20441;-81
2022/04/14 02:03:15;;;;;;;20.27;14.65;;;;;;;;;;5011163;28;20817;-81
2022/04/14 02:05:41;;;;;;;21.92;14.35;;;;;;;;;;5004434;28;20499;-81
2022/04/14 02:08:07;;;;;;;21.00;15.18;;;;;;;;;;5015730;28;20509;-81
2022/04/14 02:10:33;;;;;;;20.20;15.02;;;;;;;;;;5022063;28;20466;-81
2022/04/14 02:13:00;;;;;;;22.43;15.10;;;;;;;;;;5013628;28;20449;-81
2022/04/14 02:15:26;;;;;;;20.63;14.63;;;;;;;;;;4999087;28;20472;-81
2022/04/14 02:17:52;;;;;;;21.45;14.88;;;;;;;;;;4996188;28;20438;-81
2022/04/14 02:20:18;;;;;;;23.85;15.75;;;;;;;;;;5013774;28;20515;-81
2022/04/14 02:22:44;;;;;;;22.35;16.13;;;;;;;;;;5013966;28;20434;-81
2022/04/14 02:25:10;;;;;;;23.92;16.30;;;;;;;;;;4997142;28;20846;-81
2022/04/14 02:27:36;;;;;;;23.92;16.25;;;;;;;;;;4997127;28;20924;-81
2022/04/14 02:30:03;;;;;;;25.75;16.58;;;;;;;;;;5015557;28;20473;-81
2022/04/14 02:32:29;;;;;;;26.42;17.77;;;;;;;;;;5014218;28;20951;-81
2022/04/14 02:34:55;;;;;;;21.63;16.88;;;;;;;;;;5014348;28;20444;-81
2022/04/14 02:37:21;;;;;;;26.73;17.73;;;;;;;;;;4998157;28;20539;-81
2022/04/14 02:39:47;;;;;;;24.80;17.50;;;;;;;;;;4947045;28;20425;-80
2022/04/14 02:42:13;;;;;;;26.15;18.40;;;;;;;;;;5015315;28;20438;-81
2022/04/14 02:44:39;;;;;;;26.48;18.33;;;;;;;;;;5010108;28;20434;-81
2022/04/14 02:47:05;;;;;;;29.00;17.60;;;;;;;;;;4967031;28;20430;-81
2022/04/14 02:49:32;;;;;;;29.33;18.88;;;;;;;;;;4967611;28;20426;-81
2022/04/14 02:51:58;;;;;;;26.30;18.58;;;;;;;;;;5010737;28;20542;-81
2022/04/14 02:54:24;;;;;;;27.43;19.13;;;;;;;;;;5016568;28;20434;-81
2022/04/14 02:56:50;;;;;;;27.77;19.88;;;;;;;;;;5018625;28;20437;-81
2022/04/14 02:59:16;;;;;;;27.88;19.45;;;;;;;;;;4992755;28;20426;-81
2022/04/14 03:01:42;;;;;;;28.13;20.43;;;;;;;;;;5011542;28;20438;-81
2022/04/14 03:04:08;;;;;;;29.13;20.40;;;;;;;;;;5015815;28;20422;-81
2022/04/14 03:06:34;;;;;;;32.90;21.75;;;;;;;;;;5009619;28;20436;-81
2022/04/14 03:09:00;;;;;;;30.00;20.42;;;;;;;;;;5008366;28;20484;-81
2022/04/14 03:11:26;;;;;;;30.60;21.90;;;;;;;;;;5011773;28;20430;-81
2022/04/14 03:13:52;;;;;;;30.50;22.33;;;;;;;;;;5013499;28;20433;-81
2022/04/14 03:16:18;;;;;;;33.25;23.15;;;;;;;;;;5013142;28;20430;-81
2022/04/14 03:18:44;;;;;;;33.10;23.42;;;;;;;;;;5015158;28;20436;-81
2022/04/14 03:21:11;;;;;;;33.92;23.55;;;;;;;;;;4993094;28;20450;-81
2022/04/14 03:23:39;;;;;;;40.33;25.98;;;;;;;;;;5012195;28;20495;-80
2022/04/14 03:26:08;;;;;;;37.05;25.42;;;;;;;;;;4993119;28;20430;-80
2022/04/14 03:28:34;;;;;;;34.08;25.30;;;;;;;;;;5011944;28;20435;-80
2022/04/14 03:31:00;;;;;;;36.17;26.45;;;;;;;;;;5013029;28;20480;-81
2022/04/14 03:33:26;;;;;;;37.50;26.42;;;;;;;;;;5013534;28;20429;-80
2022/04/14 03:35:52;;;;;;;38.47;27.08;;;;;;;;;;5012743;28;20436;-81
2022/04/14 03:38:18;;;;;;;38.05;26.50;;;;;;;;;;5012927;28;20433;-81
2022/04/14 03:40:44;;;;;;;42.38;29.13;;;;;;;;;;4948876;28;20417;-80
2022/04/14 03:43:10;;;;;;;39.53;27.83;;;;;;;;;;4997662;28;20434;-81
2022/04/14 03:45:36;;;;;;;39.87;28.90;;;;;;;;;;5009866;28;20460;-81
2022/04/14 03:48:02;;;;;;;43.53;29.13;;;;;;;;;;4996907;28;20434;-81
2022/04/14 03:50:29;;;;;;;43.30;30.48;;;;;;;;;;5004596;28;20751;-81
2022/04/14 03:52:55;;;;;;;44.07;31.47;;;;;;;;;;5006831;28;20430;-80
2022/04/14 03:55:21;;;;;;;43.63;30.13;;;;;;;;;;5011810;28;20491;-81
2022/04/14 03:57:47;;;;;;;47.03;32.35;;;;;;;;;;5015633;28;20480;-80
2022/04/14 04:00:13;;;;;;;52.38;34.65;;;;;;;;;;5015818;28;20438;-81
2022/04/14 04:02:39;;;;;;;47.38;32.83;;;;;;;;;;5011839;28;20438;-80
2022/04/14 04:05:06;;;;;;;50.53;35.33;;;;;;;;;;5018582;28;20847;-80
2022/04/14 04:07:32;;;;;;;50.10;34.53;;;;;;;;;;5017976;28;20426;-80
2022/04/14 04:09:58;;;;;;;52.37;35.23;;;;;;;;;;5011303;28;20437;-81
2022/04/14 04:12:24;;;;;;;50.65;35.60;;;9.70;99.90;;;;;;5017741;28;20429;-81
2022/04/14 04:14:50;;;;;;;57.20;35.97;;;;;;;;;;5010161;28;20430;-80
2022/04/14 04:17:17;;;;;;;51.15;35.28;;;;;;;;;;5009883;28;20421;-80
2022/04/14 04:19:43;;;;;;;53.97;36.87;;;;;;;;;;4978291;28;20902;-80
2022/04/14 04:22:12;;;;;;;52.38;36.00;;;;;;;;;;5000890;28;20441;-80
2022/04/14 04:24:38;;;;;;;53.07;36.00;;;;;;;;;;5014130;28;20509;-80
2022/04/14 04:27:05;;;;;;;54.20;36.50;;;;;;;;;;5016812;28;20430;-81
2022/04/14 04:29:31;;;;;;;60.22;38.10;;;;;;;;;;5016609;28;20480;-80
2022/04/14 04:31:57;;;;;;;56.90;37.78;;;;;;;;;;5017979;28;20440;-81
2022/04/14 04:34:24;;;;;;;57.20;38.73;;;;;;;;;;5012405;28;20430;-81
2022/04/14 04:36:50;;;;;;;63.92;39.03;;;;;;;;;;4975365;28;21068;-80
2022/04/14 04:39:16;;;;;;;62.45;40.92;;;;;;;;;;5013813;28;20952;-81
2022/04/14 04:41:43;;;;;;;62.58;39.78;;;;;;;;;;5017436;28;20938;-80
2022/04/14 04:44:09;;;;;;;60.05;40.28;;;;;;;;;;5014201;28;20460;-81
2022/04/14 04:46:35;;;;;;;61.92;41.55;;;;;;;;;;5014201;28;20952;-80
2022/04/14 04:49:01;;;;;;;60.03;40.33;;;;;;;;;;5021562;28;20508;-81
2022/04/14 04:51:28;;;;;;;64.13;40.10;;;9.40;99.90;;;;;;5023461;28;20445;-80
2022/04/14 04:53:54;;;;;;;60.28;40.72;;;;;;;;;;5019608;28;20438;-81
2022/04/14 04:56:20;;;;;;;59.40;40.47;;;;;;;;;;5013530;28;20560;-81
2022/04/14 04:58:47;;;;;;;62.08;40.42;;;;;;;;;;5013956;28;20988;-81
2022/04/14 05:01:13;;;;;;;68.47;43.70;;;;;;;;;;4997369;28;20832;-81
2022/04/14 05:03:40;;;;;;;67.10;43.33;;;;;;;;;;5000203;28;20445;-81
2022/04/14 05:06:06;;;;;;;72.93;44.72;;;;;;;;;;5010086;28;20467;-80
2022/04/14 05:08:32;;;;;;;68.80;43.50;;;;;;;;;;5013643;28;20518;-80
2022/04/14 05:10:58;;;;;;;73.45;46.25;;;;;;;;;;5035064;28;20484;-80
2022/04/14 05:13:24;;;;;;;70.80;45.53;;;;;;;;;;5017236;28;20434;-81
2022/04/14 05:15:50;;;;;;;67.95;43.97;;;;;;;;;;4996493;28;20474;-80
2022/04/14 05:18:16;;;;;;;69.35;45.30;;;;;;;;;;4981669;28;20438;-80
2022/04/14 05:20:42;;;;;;;73.57;46.40;;;;;;;;;;5012116;28;20437;-80
2022/04/14 05:23:09;;;;;;;72.75;47.47;;;;;;;;;;4993745;28;20442;-80
2022/04/14 05:25:36;;;;;;;70.45;44.67;;;;;;;;;;4942773;28;20434;-80
2022/04/14 05:28:02;;;;;;;71.93;46.97;;;;;;;;;;4998840;28;21001;-81
2022/04/14 05:30:28;;;;;;;70.38;44.95;;;;;;;;;;5012889;28;20445;-81
2022/04/14 05:32:54;;;;;;;62.70;43.05;;;;;;;;;;5014226;28;20430;-81
2022/04/14 05:35:21;;;;;;;72.53;47.05;;;;;;;;;;5012383;28;20460;-82
2022/04/14 05:37:47;;;;;;;71.47;46.05;;;;;;;;;;4997779;28;21256;-79
2022/04/14 05:40:13;;;;;;;72.15;45.95;;;;;;;;;;4991989;28;20434;-81
2022/04/14 05:42:45;;;;;;;66.30;44.45;;;;;;;;;;4947493;28;21008;-82
2022/04/14 05:45:12;;;;;;;65.55;45.17;;;9.40;99.90;;;;;;5009672;28;20434;-79
2022/04/14 05:47:39;;;;;;;61.58;43.45;;;;;;;;;;5010438;28;20441;-81
2022/04/14 05:50:05;;;;;;;65.47;44.83;;;;;;;;;;4968020;28;20407;-81
2022/04/14 05:52:31;;;;;;;61.35;41.22;;;;;;;;;;4995781;28;20450;-81
2022/04/14 05:55:01;;;;;;;60.08;42.22;;;;;;;;;;5014063;28;20952;-81
2022/04/14 05:57:27;;;;;;;62.85;41.45;;;;;;;;;;5014512;28;20438;-80
2022/04/14 05:59:54;;;;;;;61.28;41.97;;;;;;;;;;4939259;28;20936;-81
2022/04/14 06:02:20;;;;;;;58.55;40.85;;;;;;;;;;5014813;28;20446;-80
2022/04/14 06:04:46;;;;;;;58.47;40.30;;;;;;;;;;5007383;28;20441;-80
2022/04/14 06:07:11;;;;;;;58.72;41.05;;;10.00;99.90;;;;;;5013003;28;20505;-79
2022/04/14 06:09:38;;;;;;;55.37;39.17;;;;;;;;;;4997188;28;20867;-82
2022/04/14 06:12:04;;;;;;;61.38;40.88;;;;;;;;;;5014835;28;20432;-82
2022/04/14 06:14:33;;;;;;;57.85;38.05;;;;;;;;;;5015262;28;20434;-82
2022/04/14 06:16:59;;;;;;;56.38;38.20;;;;;;;;;;5011253;28;22406;-82
2022/04/14 06:19:25;;;;;;;52.90;37.90;;;;;;;;;;5013423;28;20440;-82
2022/04/14 06:21:51;;;;;;;56.30;38.55;;;;;;;;;;5013906;28;20511;-81
2022/04/14 06:24:17;;;;;;;57.05;38.15;;;;;;;;;;4999691;28;20549;-81
2022/04/14 06:26:43;;;;;;;54.43;36.97;;;;;;;;;;4984537;28;20821;-82
2022/04/14 06:29:10;;;;;;;54.20;37.45;;;;;;;;;;5013123;28;20453;-82
2022/04/14 06:31:37;;;;;;;56.30;38.95;;;;;;;;;;5013855;28;20426;-82
2022/04/14 06:34:05;;;;;;;56.63;38.50;;;;;;;;;;4989595;28;20432;-81
2022/04/14 06:36:31;;;;;;;55.00;39.33;;;;;;;;;;5003156;28;20917;-81
2022/04/14 06:38:57;;;;;;;60.20;39.63;;;;;;;;;;4947739;28;20476;-82
2022/04/14 06:41:23;;;;;;;57.03;39.35;;;11.00;99.90;;;;;;5012022;28;20833;-82
2022/04/14 06:43:49;;;;;;;55.08;39.28;;;;;;;;;;5013249;28;20522;-82
2022/04/14 06:46:16;;;;;;;54.67;39.15;;;11.00;99.90;;;;;;5005280;28;20433;-81
2022/04/14 06:48:42;;;;;;;55.97;38.10;;;;;;;;;;4948007;28;20430;-80
2022/04/14 06:51:08;;;;;;;51.45;36.40;;;;;;;;;;4997630;28;20833;-81
2022/04/14 06:53:35;;;;;;;49.17;35.38;;;;;;;;;;5008281;28;20443;-81
2022/04/14 06:56:01;;;;;;;49.25;33.97;;;;;;;;;;4943824;28;20429;-81
2022/04/14 06:58:28;;;;;;;45.88;32.55;;;11.60;99.90;;;;;;5014568;28;20461;-80
2022/04/14 07:00:54;;;;;;;46.70;31.90;;;;;;;;;;4938246;28;20767;-80
2022/04/14 07:03:26;;;;;;;44.90;31.67;;;;;;;;;;5012374;28;20445;-80
2022/04/14 07:05:54;;;;;;;43.60;30.95;;;;;;;;;;5012498;28;20509;-79
2022/04/14 07:08:20;;;;;;;41.97;29.23;;;;;;;;;;5007130;28;20747;-80
2022/04/14 07:10:47;;;;;;;41.85;29.13;;;;;;;;;;5013250;28;20434;-80
2022/04/14 07:13:13;;;;;;;37.53;26.15;;;;;;;;;;4946743;28;20442;-79
2022/04/14 07:15:39;;;;;;;32.35;25.05;;;;;;;;;;5013062;28;20510;-80
2022/04/14 07:18:07;;;;;;;36.08;25.38;;;;;;;;;;5011286;28;20439;-80
2022/04/14 07:20:33;;;;;;;36.30;25.03;;;;;;;;;;5009947;28;20438;-80
2022/04/14 07:22:59;;;;;;;34.53;24.25;;;;;;;;;;5012430;28;20442;-79
2022/04/14 07:25:28;;;;;;;30.80;22.80;;;;;;;;;;5014347;28;20929;-79
2022/04/14 07:27:54;;;;;;;30.58;22.00;;;;;;;;;;5011673;28;20525;-79
2022/04/14 07:30:21;;;;;;;28.85;20.95;;;12.80;99.90;;;;;;4955320;28;20936;-80
2022/04/14 07:32:47;;;;;;;26.13;19.10;;;;;;;;;;5011800;28;20434;-80
2022/04/14 07:35:13;;;;;;;28.75;20.40;;;;;;;;;;4948466;28;20446;-79
2022/04/14 07:37:40;;;;;;;27.08;20.20;;;;;;;;;;4953809;28;20426;-80
2022/04/14 07:40:06;;;;;;;25.63;19.70;;;;;;;;;;4992230;28;20437;-79
2022/04/14 07:42:33;;;;;;;26.55;19.52;;;;;;;;;;4997589;28;20533;-80
2022/04/14 07:44:59;;;;;;;28.60;19.08;;;13.70;99.90;;;;;;4995791;28;20479;-79
2022/04/14 07:47:25;;;;;;;29.42;18.77;;;;;;;;;;4997923;28;20438;-80
2022/04/14 07:49:51;;;;;;;28.35;20.50;;;13.60;99.90;;;;;;5009340;28;20438;-79
2022/04/14 07:52:17;;;;;;;27.30;20.83;;;;;;;;;;4981260;28;20526;-79
2022/04/14 07:54:44;;;;;;;30.00;21.67;;;;;;;;;;5013456;28;20440;-79
2022/04/14 07:57:11;;;;;;;30.50;20.63;;;;;;;;;;5013452;28;20434;-79
2022/04/14 07:59:37;;;;;;;29.52;21.55;;;;;;;;;;5010200;28;20441;-79
2022/04/14 08:02:03;;;;;;;31.23;22.48;;;14.20;99.90;;;;;;4947549;28;20457;-79
2022/04/14 08:04:30;;;;;;;32.67;23.73;;;;;;;;;;5006419;28;20437;-79
2022/04/14 08:06:56;;;;;;;28.67;21.30;;;;;;;;;;5012379;28;20426;-79
2022/04/14 08:09:22;;;;;;;29.50;21.80;;;;;;;;;;4989921;28;20491;-79
2022/04/14 08:11:49;;;;;;;30.65;21.73;;;;;;;;;;4991562;28;20483;-79
2022/04/14 08:14:15;;;;;;;25.23;19.98;;;;;;;;;;4988264;28;20442;-79
2022/04/14 08:16:40;;;;;;;26.83;20.38;;;14.70;99.90;;;;;;4996190;28;20426;-79
2022/04/14 08:19:07;;;;;;;28.37;20.27;;;;;;;;;;5006773;28;20449;-79
2022/04/14 08:21:33;;;;;;;32.10;19.80;;;15.10;99.90;;;;;;5011111;28;20473;-79
2022/04/14 08:23:59;;;;;;;26.60;19.35;;;14.90;99.90;;;;;;5012084;28;21018;-79
2022/04/14 08:26:28;;;;;;;24.92;20.35;;;15.00;99.90;;;;;;5009854;28;20491;-79
2022/04/14 08:28:55;;;;;;;24.87;18.73;;;15.30;99.90;;;;;;5006972;28;20880;-79
2022/04/14 08:31:23;;;;;;;26.00;19.52;;;15.20;99.90;;;;;;5001569;28;20442;-79
2022/04/14 08:33:49;;;;;;;24.52;18.58;;;15.40;99.90;;;;;;5010859;28;20585;-79
2022/04/14 08:36:16;;;;;;;21.63;16.70;;;15.40;99.90;;;;;;4998762;28;20788;-79
2022/04/14 08:38:44;;;;;;;23.30;18.02;;;15.50;99.90;;;;;;5014605;28;20445;-79
2022/04/14 08:41:14;;;;;;;22.05;17.88;;;15.60;99.90;;;;;;4950645;28;20461;-79
2022/04/14 08:43:51;;;;;;;23.70;18.00;;;15.80;99.90;;;;;;5018445;28;20445;-79
2022/04/14 08:46:19;;;;;;;20.27;16.30;;;16.00;99.90;;;;;;4983853;28;20446;-80
2022/04/14 08:48:50;;;;;;;19.48;16.17;;;15.80;99.90;;;;;;5011763;28;20429;-79
2022/04/14 08:51:17;;;;;;;19.88;15.93;;;15.70;99.90;;;;;;4999087;28;20910;-79
2022/04/14 08:53:43;;;;;;;20.98;16.27;;;15.70;99.90;;;;;;5001633;28;20446;-79
2022/04/14 08:56:10;;;;;;;21.10;15.73;;;15.80;99.90;;;;;;5030221;28;20436;-80
2022/04/14 08:58:37;;;;;;;20.27;15.20;;;;;;;;;;4983293;28;20518;-78
2022/04/14 09:01:04;;;;;;;18.95;14.30;;;;;;;;;;4998539;28;20445;-79
2022/04/14 09:03:31;;;;;;;18.77;14.30;;;16.70;99.90;;;;;;5014309;28;20853;-79
2022/04/14 09:05:57;;;;;;;16.63;12.73;;;16.70;99.90;;;;;;5015802;28;20437;-82
2022/04/14 09:08:23;;;;;;;15.50;11.85;;;16.70;99.90;;;;;;5014429;28;20441;-80
2022/04/14 09:10:50;;;;;;;17.30;12.50;;;17.00;99.90;;;;;;5013522;28;20430;-80
2022/04/14 09:13:17;;;;;;;16.00;12.38;;;;;;;;;;5008962;28;20429;-80
2022/04/14 09:15:42;;;;;;;18.67;12.82;;;17.00;99.90;;;;;;5006605;28;20466;-80
2022/04/14 09:18:08;;;;;;;16.42;11.98;;;17.00;99.90;;;;;;4991888;28;20465;-80
2022/04/14 09:20:38;;;;;;;15.38;11.60;;;16.90;99.90;;;;;;5015100;28;20428;-79
2022/04/14 09:23:20;;;;;;;14.18;11.10;;;16.70;99.90;;;;;;5014244;28;20430;-80
2022/04/14 09:25:51;;;;;;;13.50;10.18;;;17.50;99.90;;;;;;5012002;28;20449;-80
2022/04/14 09:28:19;;;;;;;14.68;10.85;;;17.40;99.90;;;;;;5009426;28;20438;-80
2022/04/14 09:31:04;;;;;;;15.30;10.90;;;17.50;99.90;;;;;;5010339;28;20426;-80
2022/04/14 09:33:32;;;;;;;14.60;10.40;;;17.60;99.90;;;;;;5017502;28;20442;-80
2022/04/14 09:36:21;;;;;;;12.23;8.93;;;17.60;99.90;;;;;;5013820;28;20461;-81
2022/04/14 09:38:51;;;;;;;14.27;9.95;;;;;;;;;;5013655;28;20430;-81
2022/04/14 09:41:27;;;;;;;17.00;10.60;;;;;;;;;;4948167;28;20441;-80
2022/04/14 09:43:54;;;;;;;13.40;9.70;;;17.10;99.90;;;;;;4948626;28;20430;-79
2022/04/14 09:46:20;;;;;;;11.77;8.93;;;;;;;;;;4941897;28;20483;-81
2022/04/14 09:49:08;;;;;;;14.80;10.30;;;16.90;99.90;;;;;;4944454;28;20433;-79
2022/04/14 09:51:39;;;;;;;13.27;9.50;;;17.10;99.90;;;;;;4990858;28;20437;-79
2022/04/14 09:54:16;;;;;;;12.52;9.00;;;16.90;99.90;;;;;;4991939;28;20434;-79
2022/04/14 09:56:43;;;;;;;11.93;8.18;;;16.80;99.90;;;;;;5009023;28;21236;-79
2022/04/14 09:59:11;;;;;;;13.05;8.32;;;;;;;;;;4943864;28;20425;-81
2022/04/14 10:01:38;;;;;;;10.80;6.78;;;;;;;;;;5013050;28;20601;-81
2022/04/14 10:04:05;;;;;;;10.82;7.72;;;;;;;;;;4991253;28;20479;-81
2022/04/14 10:06:31;;;;;;;10.90;7.13;;;;;;;;;;4954087;28;20427;-81
2022/04/14 10:08:57;;;;;;;9.45;7.25;;;;;;;;;;4954495;28;20524;-81
2022/04/14 10:11:25;;;;;;;12.65;7.53;;;16.80;99.90;;;;;;5016987;28;20501;-81
2022/04/14 10:13:51;;;;;;;9.40;6.57;;;16.90;99.90;;;;;;5011230;28;20432;-80
2022/04/14 10:16:23;;;;;;;8.87;6.00;;;;;;;;;;4990000;28;20434;-81
2022/04/14 10:18:52;;;;;;;8.73;5.93;;;;;;;;;;5017112;28;20434;-81
2022/04/14 10:21:19;;;;;;;10.13;6.30;;;17.00;99.90;;;;;;5003363;28;20433;-81
2022/04/14 10:23:47;;;;;;;8.07;5.72;;;17.00;99.90;;;;;;5021117;28;20956;-81
2022/04/14 10:26:13;;;;;;;9.77;5.97;;;17.20;99.90;;;;;;4999925;28;20437;-81
2022/04/14 10:28:40;;;;;;;9.75;5.40;;;17.20;99.90;;;;;;5002415;28;20509;-81
2022/04/14 10:31:07;;;;;;;8.70;5.43;;;17.50;99.90;;;;;;4950252;28;20418;-80
2022/04/14 10:33:33;;;;;;;7.43;5.57;;;;;;;;;;5017576;28;20430;-80
2022/04/14 10:35:59;;;;;;;9.23;6.30;;;17.30;99.90;;;;;;5014625;28;20434;-81
2022/04/14 10:38:25;;;;;;;8.77;5.85;;;;;;;;;;4987751;28;20460;-81
2022/04/14 10:41:01;;;;;;;9.82;5.05;;;17.70;99.90;;;;;;5001794;28;20448;-81
2022/04/14 10:43:28;;;;;;;8.75;4.88;;;;;;;;;;5001644;28;20433;-80
2022/04/14 10:45:58;;;;;;;10.05;5.50;;;17.70;99.90;;;;;;5020375;28;20431;-81
2022/04/14 10:48:29;;;;;;;9.98;6.20;;;17.50;99.90;;;;;;5017039;28;20434;-81
2022/04/14 10:51:13;;;;;;;8.75;6.05;;;17.40;99.90;;;;;;5018395;28;20469;-81
2022/04/14 10:53:59;;;;;;;9.85;5.97;;;;;;;;;;5019628;28;20936;-82
2022/04/14 10:56:33;;;;;;;8.18;5.40;;;17.70;99.90;;;;;;5019184;28;20445;-82
2022/04/14 10:59:13;;;;;;;9.52;5.38;;;17.70;99.90;;;;;;5016761;28;20863;-80
2022/04/14 11:01:50;;;;;;;5.53;2.78;;;;;;;;;;5012717;28;20437;-81
2022/04/14 11:04:24;;;;;;;5.95;2.45;;;17.70;99.90;;;;;;5016135;28;21002;-80
2022/04/14 11:06:51;;;;;;;4.68;2.42;;;;;;;;;;5034033;28;20434;-81
2022/04/14 11:09:42;;;;;;;7.43;3.05;;;17.70;99.90;;;;;;5007606;28;20430;-80
2022/04/14 11:12:10;;;;;;;6.17;2.80;;;17.80;99.90;;;;;;5015463;28;20430;-82
2022/04/14 11:14:46;;;;;;;4.00;2.37;;;17.60;99.90;;;;;;5011673;28;20482;-82
2022/04/14 11:17:30;;;;;;;5.27;2.83;;;18.00;99.90;;;;;;5014348;28;20438;-82
2022/04/14 11:20:26;;;;;;;6.13;2.90;;;18.00;99.90;;;;;;4993592;28;20474;-81
2022/04/14 11:23:24;;;;;;;6.43;3.15;;;18.00;99.90;;;;;;4995288;28;20441;-82
2022/04/14 11:26:10;;;;;;;8.18;4.20;;;;;;;;;;5014810;28;20426;-82
2022/04/14 11:28:43;;;;;;;9.05;4.35;;;17.70;99.90;;;;;;5018846;28;20464;-82
2022/04/14 11:31:19;;;;;;;11.45;4.25;;;;;;;;;;4992256;28;20434;-82
2022/04/14 11:33:49;;;;;;;6.55;3.70;;;18.00;99.90;;;;;;4929967;28;20437;-82
2022/04/14 11:36:17;;;;;;;6.72;3.45;;;17.80;99.90;;;;;;5012278;28;20479;-82
2022/04/14 11:38:59;;;;;;;7.03;2.72;;;17.50;99.90;;;;;;5014293;28;20426;-82
2022/04/14 11:41:35;;;;;;;6.28;2.92;;;17.80;99.90;;;;;;5014158;28;20426;-82
2022/04/14 11:44:22;;;;;;;5.85;3.58;;;17.60;99.90;;;;;;5003796;28;20531;-82
2022/04/14 11:46:52;;;;;;;8.35;3.38;;;;;;;;;;4947840;28;20599;-82
2022/04/14 11:49:21;;;;;;;4.65;2.53;;;18.00;99.90;;;;;;5009600;28;20817;-83
2022/04/14 11:51:58;;;;;;;5.35;2.40;;;17.90;99.90;;;;;;5008882;28;20438;-81
2022/04/14 11:54:26;;;;;;;3.53;1.80;;;18.20;99.90;;;;;;4939841;28;20460;-82
2022/04/14 11:56:53;;;;;;;4.88;2.40;;;18.30;99.90;;;;;;4993642;28;20503;-82
2022/04/14 11:59:35;;;;;;;6.82;3.42;;;18.40;99.90;;;;;;5003129;28;20438;-82
2022/04/14 12:02:23;;;;;;;9.15;4.15;;;18.50;99.90;;;;;;5017379;28;20477;-82
2022/04/14 12:04:54;;;;;;;7.97;4.43;;;18.70;99.90;;;;;;5003721;28;20583;-82
2022/04/14 12:07:22;;;;;;;8.02;3.53;;;18.70;99.90;;;;;;5013464;28;20438;-82
2022/04/14 12:10:03;;;;;;;7.20;3.75;;;18.60;99.90;;;;;;5011800;28;20421;-83
2022/04/14 12:12:31;;;;;;;7.78;4.00;;;18.60;99.90;;;;;;4992613;28;20438;-83
2022/04/14 12:14:57;;;;;;;7.15;3.58;;;18.10;99.90;;;;;;5016598;28;20488;-82
2022/04/14 12:17:24;;;;;;;8.20;3.97;;;17.90;99.90;;;;;;5016749;28;20921;-82
2022/04/14 12:19:55;;;;;;;7.50;3.70;;;17.70;99.90;;;;;;5013695;28;20432;-82
2022/04/14 12:22:26;;;;;;;7.72;3.83;;;18.00;99.90;;;;;;4952797;28;20432;-83
2022/04/14 12:24:57;;;;;;;6.03;3.95;;;17.90;99.90;;;;;;4996319;28;20434;-83
2022/04/14 12:27:34;;;;;;;7.10;3.60;;;18.10;99.90;;;;;;5011145;28;20501;-83
2022/04/14 12:30:08;;;;;;;7.10;3.60;;;17.90;99.90;;;;;;5004710;28;21004;-82
2022/04/14 12:32:34;;;;;;;7.55;3.22;;;18.00;99.90;;;;;;5015358;28;20583;-82
2022/04/14 12:35:00;;;;;;;7.70;3.00;;;18.20;99.90;;;;;;5009327;28;20427;-82
2022/04/14 12:38:09;;;;;;;5.53;2.90;;;18.40;99.90;;;;;;5012690;28;21058;-83
2022/04/14 12:40:35;;;;;;;4.85;2.90;;;18.50;99.90;;;;;;5000455;28;20422;-83
2022/04/14 12:43:04;;;;;;;6.33;3.03;;;18.50;99.90;;;;;;5015020;28;20580;-81
2022/04/14 12:45:37;;;;;;;6.97;2.75;;;18.40;99.90;;;;;;5017725;28;20522;-82
2022/04/14 12:48:05;;;;;;;4.80;2.90;;;18.20;99.90;;;;;;4982995;28;20472;-83
2022/04/14 12:50:31;;;;;;;5.87;2.67;;;;;;;;;;5014833;28;20495;-83
2022/04/14 12:52:58;;;;;;;6.28;2.60;;;18.50;99.90;;;;;;4983473;28;20445;-83
2022/04/14 12:55:32;;;;;;;6.70;2.72;;;18.20;99.90;;;;;;5027181;28;20450;-83
2022/04/14 12:58:11;;;;;;;6.22;2.35;;;18.40;99.90;;;;;;5008302;28;20837;-77
2022/04/14 13:00:38;;;;;;;5.15;2.08;;;18.70;99.90;;;;;;5012650;28;20798;-83
2022/04/14 13:03:13;;;;;;;5.68;2.30;;;18.40;99.90;;;;;;5005304;28;20441;-82
2022/04/14 13:05:40;;;;;;;5.83;2.20;;;;;;;;;;4967308;28;20435;-84
2022/04/14 13:08:06;;;;;;;6.47;2.42;;;;;;;;;;4950265;28;20430;-83
2022/04/14 13:10:38;;;;;;;5.27;2.60;;;;;;;;;;5015611;28;20469;-83
2022/04/14 13:13:04;;;;;;;5.20;2.28;;;;;;;;;;5016398;28;20434;-83
2022/04/14 13:15:31;;;;;;;5.10;2.40;;;18.00;99.90;;;;;;4998078;28;20527;-83
2022/04/14 13:17:58;;;;;;;5.25;2.50;;;;;;;;;;5009821;28;20440;-84
2022/04/14 13:20:40;;;;;;;5.40;2.50;;;18.00;99.90;;;;;;5014172;28;20465;-83
2022/04/14 13:23:11;;;;;;;7.47;2.83;;;18.00;99.90;;;;;;5006824;28;20524;-84
2022/04/14 13:25:38;;;;;;;9.48;3.20;;;18.10;99.90;;;;;;5007670;28;20998;-84
2022/04/14 13:28:04;;;;;;;7.65;3.00;;;;;;;;;;5016193;28;20655;-83
2022/04/14 13:30:31;;;;;;;5.13;2.63;;;;;;;;;;5012840;28;20530;-83
2022/04/14 13:32:57;;;;;;;6.70;2.60;;;;;;;;;;4948322;28;20429;-84
2022/04/14 13:35:23;;;;;;;6.90;2.70;;;;;;;;;;4948707;28;20445;-82
2022/04/14 13:37:52;;;;;;;4.32;2.15;;;;;;;;;;4949476;28;20485;-82
2022/04/14 13:40:18;;;;;;;5.57;2.33;;;;;;;;;;5017093;28;20456;-82
2022/04/14 13:42:44;;;;;;;5.55;2.80;;;;;;;;;;5014819;28;20960;-83
2022/04/14 13:45:11;;;;;;;6.30;3.17;;;17.70;99.90;;;;;;5016425;28;20430;-83
2022/04/14 13:47:42;;;;;;;7.43;2.70;;;18.00;99.90;;;;;;4997409;28;20445;-82
2022/04/14 13:50:08;;;;;;;5.90;2.63;;;;;;;;;;4999701;28;20485;-83